Terminal Aerodrome Forecast
Issued by NWS Lake Charles, LA

Home | Current Version | Previous Version | Text Only | Print | Product List | Glossary On
Versions: 1 2 3 4 5 6 7 8 9 10 11 12 13 14 15 16 17
000
FTUS44 KLCH 300520
TAFLFT
TAF
KLFT 300520Z 3006/0106 16014G24KT P6SM VCSH OVC020
     FM300900 17016G23KT 6SM BR VCTS OVC015CB
      TEMPO 3013/3016 VRB20G30KT 1SM +TSRA BKN008CB OVC015
     FM301600 32014G20KT 6SM -SHRA BR OVC025
     FM301900 30010KT P6SM VCSH SCT025 BKN050
     FM302300 31012KT P6SM SCT200
     FM010200 30008KT P6SM SKC=

USA.gov is the U.S. government's official web portal to all federal, state and local government web resources and services.